sensor_id;sensor_type;location;lat;lon;timestamp;temperature;humidity
54192;DHT22;40101;53.002;6.488;2024-01-10T00:02:20;-3.60;99.90
54192;DHT22;40101;53.002;6.488;2024-01-10T00:04:46;-3.50;99.90
54192;DHT22;40101;53.002;6.488;2024-01-10T00:07:12;-3.60;99.90
54192;DHT22;40101;53.002;6.488;2024-01-10T00:09:37;-3.60;99.90
54192;DHT22;40101;53.002;6.488;2024-01-10T00:12:03;-3.60;99.90
54192;DHT22;40101;53.002;6.488;2024-01-10T00:14:29;-3.60;99.90
54192;DHT22;40101;53.002;6.488;2024-01-10T00:16:54;-3.60;99.90
54192;DHT22;40101;53.002;6.488;2024-01-10T00:19:20;-3.60;99.90
54192;DHT22;40101;53.002;6.488;2024-01-10T00:21:45;-3.60;99.90
54192;DHT22;40101;53.002;6.488;2024-01-10T00:24:11;-3.60;99.90
54192;DHT22;40101;53.002;6.488;2024-01-10T00:30:51;-3.60;99.90
54192;DHT22;40101;53.002;6.488;2024-01-10T00:33:17;-3.60;99.90
54192;DHT22;40101;53.002;6.488;2024-01-10T00:35:43;-3.60;99.90
54192;DHT22;40101;53.002;6.488;2024-01-10T01:25:08;-3.90;99.90
54192;DHT22;40101;53.002;6.488;2024-01-10T01:50:39;-4.10;99.90
54192;DHT22;40101;53.002;6.488;2024-01-10T01:53:06;-4.10;99.90
54192;DHT22;40101;53.002;6.488;2024-01-10T01:55:43;-3.70;99.90
54192;DHT22;40101;53.002;6.488;2024-01-10T01:58:25;-4.00;99.90
54192;DHT22;40101;53.002;6.488;2024-01-10T02:01:04;-4.10;99.90
54192;DHT22;40101;53.002;6.488;2024-01-10T02:03:33;-4.10;99.90
54192;DHT22;40101;53.002;6.488;2024-01-10T02:06:02;-3.70;99.90
54192;DHT22;40101;53.002;6.488;2024-01-10T02:08:32;-4.10;99.90
54192;DHT22;40101;53.002;6.488;2024-01-10T02:11:33;-4.10;99.90
54192;DHT22;40101;53.002;6.488;2024-01-10T02:14:02;-4.00;99.90
54192;DHT22;40101;53.002;6.488;2024-01-10T02:16:34;-4.10;99.90
54192;DHT22;40101;53.002;6.488;2024-01-10T02:19:19;-3.80;99.90
54192;DHT22;40101;53.002;6.488;2024-01-10T02:21:45;-3.70;99.90
54192;DHT22;40101;53.002;6.488;2024-01-10T02:24:11;-4.10;99.90
54192;DHT22;40101;53.002;6.488;2024-01-10T02:26:42;-3.50;99.90
54192;DHT22;40101;53.002;6.488;2024-01-10T02:29:08;-4.40;99.90
54192;DHT22;40101;53.002;6.488;2024-01-10T02:31:37;-4.20;99.90
54192;DHT22;40101;53.002;6.488;2024-01-10T02:34:03;-4.10;99.90
54192;DHT22;40101;53.002;6.488;2024-01-10T02:36:47;-4.10;99.90
54192;DHT22;40101;53.002;6.488;2024-01-10T02:39:18;-4.80;99.90
54192;DHT22;40101;53.002;6.488;2024-01-10T02:42:20;-3.70;99.90
54192;DHT22;40101;53.002;6.488;2024-01-10T02:45:12;-4.20;99.90
54192;DHT22;40101;53.002;6.488;2024-01-10T02:52:08;-4.30;99.90
54192;DHT22;40101;53.002;6.488;2024-01-10T02:55:38;-4.20;99.90
54192;DHT22;40101;53.002;6.488;2024-01-10T02:58:32;-4.30;99.90
54192;DHT22;40101;53.002;6.488;2024-01-10T03:01:15;-4.30;99.90
54192;DHT22;40101;53.002;6.488;2024-01-10T03:06:58;-4.30;99.90
54192;DHT22;40101;53.002;6.488;2024-01-10T03:09:23;-4.60;99.90
54192;DHT22;40101;53.002;6.488;2024-01-10T03:12:32;-4.20;99.90
54192;DHT22;40101;53.002;6.488;2024-01-10T03:15:32;-4.30;99.90
54192;DHT22;40101;53.002;6.488;2024-01-10T03:18:00;-4.40;99.90
54192;DHT22;40101;53.002;6.488;2024-01-10T03:20:47;-4.40;99.90
54192;DHT22;40101;53.002;6.488;2024-01-10T03:27:02;-4.40;99.90
54192;DHT22;40101;53.002;6.488;2024-01-10T03:29:47;-4.40;99.90
54192;DHT22;40101;53.002;6.488;2024-01-10T03:32:13;-4.40;99.90
54192;DHT22;40101;53.002;6.488;2024-01-10T03:34:42;-4.50;99.90
54192;DHT22;40101;53.002;6.488;2024-01-10T03:37:08;-4.50;99.90
54192;DHT22;40101;53.002;6.488;2024-01-10T03:39:34;-4.50;99.90
54192;DHT22;40101;53.002;6.488;2024-01-10T03:41:59;-4.60;99.90
54192;DHT22;40101;53.002;6.488;2024-01-10T03:44:28;-4.10;99.90
54192;DHT22;40101;53.002;6.488;2024-01-10T03:47:01;-4.50;99.90
54192;DHT22;40101;53.002;6.488;2024-01-10T03:49:26;-4.40;99.90
54192;DHT22;40101;53.002;6.488;2024-01-10T03:51:55;-4.40;99.90
54192;DHT22;40101;53.002;6.488;2024-01-10T03:54:21;-4.40;99.90
54192;DHT22;40101;53.002;6.488;2024-01-10T03:56:47;-4.00;99.90
54192;DHT22;40101;53.002;6.488;2024-01-10T03:59:13;-4.40;99.90
54192;DHT22;40101;53.002;6.488;2024-01-10T04:01:41;-4.40;99.90
54192;DHT22;40101;53.002;6.488;2024-01-10T04:04:10;-4.50;99.90
54192;DHT22;40101;53.002;6.488;2024-01-10T04:06:36;-4.00;99.90
54192;DHT22;40101;53.002;6.488;2024-01-10T04:09:03;-4.60;99.90
54192;DHT22;40101;53.002;6.488;2024-01-10T04:11:32;-4.60;99.90
54192;DHT22;40101;53.002;6.488;2024-01-10T04:14:02;-4.60;99.90
54192;DHT22;40101;53.002;6.488;2024-01-10T04:16:29;-4.60;99.90
54192;DHT22;40101;53.002;6.488;2024-01-10T04:18:55;-4.20;99.90
54192;DHT22;40101;53.002;6.488;2024-01-10T04:21:24;-4.60;99.90
54192;DHT22;40101;53.002;6.488;2024-01-10T04:23:49;-4.60;99.90
54192;DHT22;40101;53.002;6.488;2024-01-10T04:26:17;-4.70;99.90
54192;DHT22;40101;53.002;6.488;2024-01-10T04:28:43;-4.70;99.90
54192;DHT22;40101;53.002;6.488;2024-01-10T04:31:09;-4.30;99.90
54192;DHT22;40101;53.002;6.488;2024-01-10T04:33:35;-4.70;99.90
54192;DHT22;40101;53.002;6.488;2024-01-10T04:36:01;-4.70;99.90
54192;DHT22;40101;53.002;6.488;2024-01-10T04:38:27;-4.30;99.90
54192;DHT22;40101;53.002;6.488;2024-01-10T04:40:53;-4.50;99.90
54192;DHT22;40101;53.002;6.488;2024-01-10T04:43:19;-4.70;99.90
54192;DHT22;40101;53.002;6.488;2024-01-10T04:45:45;-5.00;99.90
54192;DHT22;40101;53.002;6.488;2024-01-10T04:48:11;-4.30;99.90
54192;DHT22;40101;53.002;6.488;2024-01-10T04:50:39;-4.60;99.90
54192;DHT22;40101;53.002;6.488;2024-01-10T04:53:05;-4.70;99.90
54192;DHT22;40101;53.002;6.488;2024-01-10T04:56:12;-4.70;99.90
54192;DHT22;40101;53.002;6.488;2024-01-10T04:59:14;-4.60;99.90
54192;DHT22;40101;53.002;6.488;2024-01-10T05:04:55;-4.70;99.90
54192;DHT22;40101;53.002;6.488;2024-01-10T05:14:25;-4.70;99.90
54192;DHT22;40101;53.002;6.488;2024-01-10T05:16:51;-4.30;99.90
54192;DHT22;40101;53.002;6.488;2024-01-10T05:19:18;-3.90;99.90
54192;DHT22;40101;53.002;6.488;2024-01-10T05:21:44;-4.30;99.90
54192;DHT22;40101;53.002;6.488;2024-01-10T05:24:11;-4.70;99.90
54192;DHT22;40101;53.002;6.488;2024-01-10T05:26:37;-4.30;99.90
54192;DHT22;40101;53.002;6.488;2024-01-10T05:29:03;-4.70;99.90
54192;DHT22;40101;53.002;6.488;2024-01-10T05:31:28;-4.80;99.90
54192;DHT22;40101;53.002;6.488;2024-01-10T05:33:54;-4.80;99.90
54192;DHT22;40101;53.002;6.488;2024-01-10T05:36:23;-3.90;99.90
54192;DHT22;40101;53.002;6.488;2024-01-10T05:38:49;-4.80;99.90
54192;DHT22;40101;53.002;6.488;2024-01-10T05:41:19;-4.80;99.90
54192;DHT22;40101;53.002;6.488;2024-01-10T05:43:44;-4.50;99.90
54192;DHT22;40101;53.002;6.488;2024-01-10T05:46:26;-4.40;99.90
54192;DHT22;40101;53.002;6.488;2024-01-10T05:48:54;-4.50;99.90
54192;DHT22;40101;53.002;6.488;2024-01-10T05:51:20;-4.50;99.90
54192;DHT22;40101;53.002;6.488;2024-01-10T05:53:46;-4.50;99.90
54192;DHT22;40101;53.002;6.488;2024-01-10T05:56:12;-4.80;99.90
54192;DHT22;40101;53.002;6.488;2024-01-10T05:58:48;-3.80;99.90
54192;DHT22;40101;53.002;6.488;2024-01-10T06:01:26;-4.60;99.90
54192;DHT22;40101;53.002;6.488;2024-01-10T06:04:01;-4.80;99.90
54192;DHT22;40101;53.002;6.488;2024-01-10T06:06:26;-4.80;99.90
54192;DHT22;40101;53.002;6.488;2024-01-10T06:08:52;-4.80;99.90
54192;DHT22;40101;53.002;6.488;2024-01-10T06:11:21;-4.80;99.90
54192;DHT22;40101;53.002;6.488;2024-01-10T06:13:47;-4.50;99.90
54192;DHT22;40101;53.002;6.488;2024-01-10T06:16:13;-4.80;99.90
54192;DHT22;40101;53.002;6.488;2024-01-10T06:18:39;-4.80;99.90
54192;DHT22;40101;53.002;6.488;2024-01-10T06:21:05;-4.70;99.90
54192;DHT22;40101;53.002;6.488;2024-01-10T06:23:31;-4.70;99.90
54192;DHT22;40101;53.002;6.488;2024-01-10T06:25:57;-4.70;99.90
54192;DHT22;40101;53.002;6.488;2024-01-10T06:28:22;-4.00;99.90
54192;DHT22;40101;53.002;6.488;2024-01-10T06:30:49;-4.70;99.90
54192;DHT22;40101;53.002;6.488;2024-01-10T06:33:15;-4.70;99.90
54192;DHT22;40101;53.002;6.488;2024-01-10T06:35:41;-4.50;99.90
54192;DHT22;40101;53.002;6.488;2024-01-10T06:38:11;-4.20;99.90
54192;DHT22;40101;53.002;6.488;2024-01-10T06:40:37;-4.40;99.90
54192;DHT22;40101;53.002;6.488;2024-01-10T06:43:06;-4.70;99.90
54192;DHT22;40101;53.002;6.488;2024-01-10T06:45:34;-4.70;99.90
54192;DHT22;40101;53.002;6.488;2024-01-10T06:48:00;-4.70;99.90
54192;DHT22;40101;53.002;6.488;2024-01-10T06:50:25;-4.70;99.90
54192;DHT22;40101;53.002;6.488;2024-01-10T06:52:51;-4.70;99.90
54192;DHT22;40101;53.002;6.488;2024-01-10T06:55:17;-4.10;99.90
54192;DHT22;40101;53.002;6.488;2024-01-10T06:57:44;-4.40;99.90
54192;DHT22;40101;53.002;6.488;2024-01-10T07:00:10;-4.70;99.90
54192;DHT22;40101;53.002;6.488;2024-01-10T07:02:39;-4.70;99.90
54192;DHT22;40101;53.002;6.488;2024-01-10T07:05:09;-4.20;99.90
54192;DHT22;40101;53.002;6.488;2024-01-10T07:07:34;-3.90;99.90
54192;DHT22;40101;53.002;6.488;2024-01-10T07:10:01;-4.80;99.90
54192;DHT22;40101;53.002;6.488;2024-01-10T07:12:33;-4.70;99.90
54192;DHT22;40101;53.002;6.488;2024-01-10T07:14:59;-4.70;99.90
54192;DHT22;40101;53.002;6.488;2024-01-10T07:17:26;-4.60;99.90
54192;DHT22;40101;53.002;6.488;2024-01-10T07:19:51;-4.40;99.90
54192;DHT22;40101;53.002;6.488;2024-01-10T07:22:17;-5.00;99.90
54192;DHT22;40101;53.002;6.488;2024-01-10T07:24:45;-4.80;99.90
54192;DHT22;40101;53.002;6.488;2024-01-10T07:27:12;-4.80;99.90
54192;DHT22;40101;53.002;6.488;2024-01-10T07:29:42;-4.10;99.90
54192;DHT22;40101;53.002;6.488;2024-01-10T07:32:07;-4.80;99.90
54192;DHT22;40101;53.002;6.488;2024-01-10T07:34:37;-4.70;99.90
54192;DHT22;40101;53.002;6.488;2024-01-10T07:37:03;-4.80;99.90
54192;DHT22;40101;53.002;6.488;2024-01-10T07:39:28;-4.70;99.90
54192;DHT22;40101;53.002;6.488;2024-01-10T07:41:55;-4.50;99.90
54192;DHT22;40101;53.002;6.488;2024-01-10T07:44:21;-4.40;99.90
54192;DHT22;40101;53.002;6.488;2024-01-10T07:46:47;-4.80;99.90
54192;DHT22;40101;53.002;6.488;2024-01-10T07:49:14;-4.80;99.90
54192;DHT22;40101;53.002;6.488;2024-01-10T07:51:42;-4.70;99.90
54192;DHT22;40101;53.002;6.488;2024-01-10T07:54:07;-4.80;99.90
54192;DHT22;40101;53.002;6.488;2024-01-10T07:56:33;-4.20;99.90
54192;DHT22;40101;53.002;6.488;2024-01-10T07:58:59;-4.30;99.90
54192;DHT22;40101;53.002;6.488;2024-01-10T08:01:25;-3.90;99.90
54192;DHT22;40101;53.002;6.488;2024-01-10T08:03:51;-3.70;99.90
54192;DHT22;40101;53.002;6.488;2024-01-10T08:06:17;-3.40;99.90
54192;DHT22;40101;53.002;6.488;2024-01-10T08:08:43;-3.10;99.90
54192;DHT22;40101;53.002;6.488;2024-01-10T08:11:08;-3.10;99.90
54192;DHT22;40101;53.002;6.488;2024-01-10T08:13:34;-2.50;99.90
54192;DHT22;40101;53.002;6.488;2024-01-10T08:16:00;-2.70;99.90
54192;DHT22;40101;53.002;6.488;2024-01-10T08:18:25;-2.50;99.90
54192;DHT22;40101;53.002;6.488;2024-01-10T08:20:51;-1.80;99.90
54192;DHT22;40101;53.002;6.488;2024-01-10T08:23:17;-1.60;99.90
54192;DHT22;40101;53.002;6.488;2024-01-10T08:25:43;-1.30;99.90
54192;DHT22;40101;53.002;6.488;2024-01-10T08:28:09;-1.00;99.90
54192;DHT22;40101;53.002;6.488;2024-01-10T08:30:35;-0.30;99.90
54192;DHT22;40101;53.002;6.488;2024-01-10T08:33:01;0.10;99.90
54192;DHT22;40101;53.002;6.488;2024-01-10T08:35:29;-0.50;99.90
54192;DHT22;40101;53.002;6.488;2024-01-10T08:37:55;-0.30;99.90
54192;DHT22;40101;53.002;6.488;2024-01-10T08:40:21;0.20;99.90
54192;DHT22;40101;53.002;6.488;2024-01-10T08:42:51;0.00;99.90
54192;DHT22;40101;53.002;6.488;2024-01-10T08:45:17;0.20;99.90
54192;DHT22;40101;53.002;6.488;2024-01-10T08:47:43;-0.10;99.90
54192;DHT22;40101;53.002;6.488;2024-01-10T08:50:11;0.00;99.90
54192;DHT22;40101;53.002;6.488;2024-01-10T08:52:36;0.50;99.90
54192;DHT22;40101;53.002;6.488;2024-01-10T08:55:06;0.30;99.90
54192;DHT22;40101;53.002;6.488;2024-01-10T08:57:31;0.40;99.90
54192;DHT22;40101;53.002;6.488;2024-01-10T08:59:57;0.70;99.90
54192;DHT22;40101;53.002;6.488;2024-01-10T09:02:23;0.70;99.90
54192;DHT22;40101;53.002;6.488;2024-01-10T09:04:49;0.80;99.90
54192;DHT22;40101;53.002;6.488;2024-01-10T09:07:17;0.90;99.90
54192;DHT22;40101;53.002;6.488;2024-01-10T09:09:43;1.00;99.90
54192;DHT22;40101;53.002;6.488;2024-01-10T09:12:09;1.30;99.90
54192;DHT22;40101;53.002;6.488;2024-01-10T09:14:35;1.30;99.90
54192;DHT22;40101;53.002;6.488;2024-01-10T09:17:00;1.60;99.90
54192;DHT22;40101;53.002;6.488;2024-01-10T09:19:32;1.90;99.90
54192;DHT22;40101;53.002;6.488;2024-01-10T09:21:58;1.20;99.90
54192;DHT22;40101;53.002;6.488;2024-01-10T09:28:05;1.00;99.90
54192;DHT22;40101;53.002;6.488;2024-01-10T09:30:31;1.00;99.90
54192;DHT22;40101;53.002;6.488;2024-01-10T09:32:56;1.00;99.90
54192;DHT22;40101;53.002;6.488;2024-01-10T09:35:22;0.90;99.90
54192;DHT22;40101;53.002;6.488;2024-01-10T09:37:48;0.50;99.90
54192;DHT22;40101;53.002;6.488;2024-01-10T09:40:16;0.50;99.90
54192;DHT22;40101;53.002;6.488;2024-01-10T09:42:44;0.70;99.90
54192;DHT22;40101;53.002;6.488;2024-01-10T09:45:10;1.20;99.90
54192;DHT22;40101;53.002;6.488;2024-01-10T09:47:39;1.60;99.90
54192;DHT22;40101;53.002;6.488;2024-01-10T09:50:05;1.80;99.90
54192;DHT22;40101;53.002;6.488;2024-01-10T09:52:50;2.20;99.90
54192;DHT22;40101;53.002;6.488;2024-01-10T09:55:16;2.40;99.90
54192;DHT22;40101;53.002;6.488;2024-01-10T09:57:42;2.60;99.90
54192;DHT22;40101;53.002;6.488;2024-01-10T10:00:11;2.80;99.90
54192;DHT22;40101;53.002;6.488;2024-01-10T10:02:39;2.70;99.90
54192;DHT22;40101;53.002;6.488;2024-01-10T10:05:12;2.70;99.90
54192;DHT22;40101;53.002;6.488;2024-01-10T10:07:50;2.80;99.90
54192;DHT22;40101;53.002;6.488;2024-01-10T10:10:17;2.80;99.90
54192;DHT22;40101;53.002;6.488;2024-01-10T10:12:47;2.80;99.90
54192;DHT22;40101;53.002;6.488;2024-01-10T10:15:15;2.90;99.90
54192;DHT22;40101;53.002;6.488;2024-01-10T10:17:45;2.80;99.90
54192;DHT22;40101;53.002;6.488;2024-01-10T10:20:34;2.70;99.90
54192;DHT22;40101;53.002;6.488;2024-01-10T10:23:06;2.90;99.90
54192;DHT22;40101;53.002;6.488;2024-01-10T10:25:34;3.00;99.90
54192;DHT22;40101;53.002;6.488;2024-01-10T10:28:01;3.20;99.90
54192;DHT22;40101;53.002;6.488;2024-01-10T10:30:28;2.90;99.90
54192;DHT22;40101;53.002;6.488;2024-01-10T10:32:54;2.10;99.90
54192;DHT22;40101;53.002;6.488;2024-01-10T10:35:20;0.90;99.90
54192;DHT22;40101;53.002;6.488;2024-01-10T10:37:48;0.60;99.90
54192;DHT22;40101;53.002;6.488;2024-01-10T10:40:14;0.00;99.90
54192;DHT22;40101;53.002;6.488;2024-01-10T10:42:44;-0.30;99.90
54192;DHT22;40101;53.002;6.488;2024-01-10T10:45:14;-0.60;99.90
54192;DHT22;40101;53.002;6.488;2024-01-10T10:47:43;-0.70;99.90
54192;DHT22;40101;53.002;6.488;2024-01-10T10:50:32;-0.60;99.90
54192;DHT22;40101;53.002;6.488;2024-01-10T10:52:59;-0.80;99.90
54192;DHT22;40101;53.002;6.488;2024-01-10T10:55:26;-0.80;99.90
54192;DHT22;40101;53.002;6.488;2024-01-10T10:58:18;-0.90;99.90
54192;DHT22;40101;53.002;6.488;2024-01-10T11:00:44;-1.00;99.90
54192;DHT22;40101;53.002;6.488;2024-01-10T11:03:12;-1.00;99.90
54192;DHT22;40101;53.002;6.488;2024-01-10T11:05:40;-1.00;99.90
54192;DHT22;40101;53.002;6.488;2024-01-10T11:08:08;-0.80;99.90
54192;DHT22;40101;53.002;6.488;2024-01-10T11:10:38;-1.00;99.90
54192;DHT22;40101;53.002;6.488;2024-01-10T11:13:27;-1.10;99.90
54192;DHT22;40101;53.002;6.488;2024-01-10T11:19:19;-1.00;99.90
54192;DHT22;40101;53.002;6.488;2024-01-10T11:24:40;-1.00;99.90
54192;DHT22;40101;53.002;6.488;2024-01-10T11:27:15;-1.00;99.90
54192;DHT22;40101;53.002;6.488;2024-01-10T11:29:46;-0.90;99.90
54192;DHT22;40101;53.002;6.488;2024-01-10T11:32:17;-1.00;99.90
54192;DHT22;40101;53.002;6.488;2024-01-10T11:34:59;-1.00;99.90
54192;DHT22;40101;53.002;6.488;2024-01-10T11:37:45;-1.00;99.90
54192;DHT22;40101;53.002;6.488;2024-01-10T11:40:13;-0.90;99.90
54192;DHT22;40101;53.002;6.488;2024-01-10T11:42:45;-0.90;99.90
54192;DHT22;40101;53.002;6.488;2024-01-10T11:47:59;-0.70;99.90
54192;DHT22;40101;53.002;6.488;2024-01-10T11:50:25;-0.80;99.90
54192;DHT22;40101;53.002;6.488;2024-01-10T11:52:55;-0.80;99.90
54192;DHT22;40101;53.002;6.488;2024-01-10T11:55:52;-0.70;99.90
54192;DHT22;40101;53.002;6.488;2024-01-10T11:58:17;-0.70;99.90
54192;DHT22;40101;53.002;6.488;2024-01-10T12:00:44;-0.30;99.90
54192;DHT22;40101;53.002;6.488;2024-01-10T12:03:11;-0.60;99.90
54192;DHT22;40101;53.002;6.488;2024-01-10T12:05:38;-0.60;99.90
54192;DHT22;40101;53.002;6.488;2024-01-10T12:08:10;-0.50;99.90
54192;DHT22;40101;53.002;6.488;2024-01-10T12:10:36;-0.50;99.90
54192;DHT22;40101;53.002;6.488;2024-01-10T12:13:05;-0.50;99.90
54192;DHT22;40101;53.002;6.488;2024-01-10T12:15:31;-0.20;99.90
54192;DHT22;40101;53.002;6.488;2024-01-10T12:17:57;-0.50;99.90
54192;DHT22;40101;53.002;6.488;2024-01-10T12:20:22;-0.50;99.90
54192;DHT22;40101;53.002;6.488;2024-01-10T12:22:48;-0.40;99.90
54192;DHT22;40101;53.002;6.488;2024-01-10T12:25:14;-0.40;99.90
54192;DHT22;40101;53.002;6.488;2024-01-10T12:27:42;-0.30;99.90
54192;DHT22;40101;53.002;6.488;2024-01-10T12:30:08;-0.40;99.90
54192;DHT22;40101;53.002;6.488;2024-01-10T12:32:33;-0.40;99.90
54192;DHT22;40101;53.002;6.488;2024-01-10T12:35:03;0.00;99.90
54192;DHT22;40101;53.002;6.488;2024-01-10T12:37:30;-0.40;99.90
54192;DHT22;40101;53.002;6.488;2024-01-10T12:39:56;-0.40;99.90
54192;DHT22;40101;53.002;6.488;2024-01-10T12:42:22;-0.30;99.90
54192;DHT22;40101;53.002;6.488;2024-01-10T12:44:49;-0.30;99.90
54192;DHT22;40101;53.002;6.488;2024-01-10T12:47:21;-0.30;99.90
54192;DHT22;40101;53.002;6.488;2024-01-10T12:49:48;-0.30;99.90
54192;DHT22;40101;53.002;6.488;2024-01-10T12:52:20;-0.30;99.90
54192;DHT22;40101;53.002;6.488;2024-01-10T12:54:52;-0.30;99.90
54192;DHT22;40101;53.002;6.488;2024-01-10T12:57:22;-0.20;99.90
54192;DHT22;40101;53.002;6.488;2024-01-10T12:59:48;-0.30;99.90
54192;DHT22;40101;53.002;6.488;2024-01-10T13:02:14;-0.30;99.90
54192;DHT22;40101;53.002;6.488;2024-01-10T13:04:52;-0.20;99.90
54192;DHT22;40101;53.002;6.488;2024-01-10T13:07:17;-0.20;99.90
54192;DHT22;40101;53.002;6.488;2024-01-10T13:09:58;-0.20;99.90
54192;DHT22;40101;53.002;6.488;2024-01-10T13:12:56;0.00;99.90
54192;DHT22;40101;53.002;6.488;2024-01-10T13:15:22;-0.20;99.90
54192;DHT22;40101;53.002;6.488;2024-01-10T13:17:48;-0.10;99.90
54192;DHT22;40101;53.002;6.488;2024-01-10T13:20:23;-0.10;99.90
54192;DHT22;40101;53.002;6.488;2024-01-10T13:22:50;0.00;99.90
54192;DHT22;40101;53.002;6.488;2024-01-10T13:25:16;-0.10;99.90
54192;DHT22;40101;53.002;6.488;2024-01-10T13:27:54;-0.10;99.90
54192;DHT22;40101;53.002;6.488;2024-01-10T13:30:20;0.00;99.90
54192;DHT22;40101;53.002;6.488;2024-01-10T13:32:52;-0.10;99.90
54192;DHT22;40101;53.002;6.488;2024-01-10T13:35:17;0.00;99.90
54192;DHT22;40101;53.002;6.488;2024-01-10T13:37:58;-0.10;99.90
54192;DHT22;40101;53.002;6.488;2024-01-10T13:40:33;-0.10;99.90
54192;DHT22;40101;53.002;6.488;2024-01-10T13:43:00;0.00;99.90
54192;DHT22;40101;53.002;6.488;2024-01-10T13:45:28;-0.10;99.90
54192;DHT22;40101;53.002;6.488;2024-01-10T13:48:03;0.00;99.90
54192;DHT22;40101;53.002;6.488;2024-01-10T13:54:06;0.00;99.90
54192;DHT22;40101;53.002;6.488;2024-01-10T13:56:37;0.00;99.90
54192;DHT22;40101;53.002;6.488;2024-01-10T13:59:05;0.00;99.90
54192;DHT22;40101;53.002;6.488;2024-01-10T14:01:33;0.00;99.90
54192;DHT22;40101;53.002;6.488;2024-01-10T14:04:02;0.00;99.90
54192;DHT22;40101;53.002;6.488;2024-01-10T14:06:40;-0.10;99.90
54192;DHT22;40101;53.002;6.488;2024-01-10T14:09:12;-0.10;99.90
54192;DHT22;40101;53.002;6.488;2024-01-10T14:11:40;-0.10;99.90
54192;DHT22;40101;53.002;6.488;2024-01-10T14:14:38;-0.10;99.90
54192;DHT22;40101;53.002;6.488;2024-01-10T14:17:35;-0.20;99.90
54192;DHT22;40101;53.002;6.488;2024-01-10T14:20:10;-0.20;99.90
54192;DHT22;40101;53.002;6.488;2024-01-10T14:22:36;-0.20;99.90
54192;DHT22;40101;53.002;6.488;2024-01-10T14:25:02;-0.20;99.90
54192;DHT22;40101;53.002;6.488;2024-01-10T14:27:28;-0.20;99.90
54192;DHT22;40101;53.002;6.488;2024-01-10T14:30:12;-0.30;99.90
54192;DHT22;40101;53.002;6.488;2024-01-10T14:35:28;-0.30;99.90
54192;DHT22;40101;53.002;6.488;2024-01-10T14:38:12;-0.40;99.90
54192;DHT22;40101;53.002;6.488;2024-01-10T14:41:00;-0.40;99.90
54192;DHT22;40101;53.002;6.488;2024-01-10T14:43:25;-0.40;99.90
54192;DHT22;40101;53.002;6.488;2024-01-10T14:45:51;-0.40;99.90
54192;DHT22;40101;53.002;6.488;2024-01-10T14:48:35;-0.30;99.90
54192;DHT22;40101;53.002;6.488;2024-01-10T14:51:26;-0.60;99.90
54192;DHT22;40101;53.002;6.488;2024-01-10T14:53:52;-0.60;99.90
54192;DHT22;40101;53.002;6.488;2024-01-10T14:56:27;-0.10;99.90
54192;DHT22;40101;53.002;6.488;2024-01-10T15:02:40;-0.70;99.90
54192;DHT22;40101;53.002;6.488;2024-01-10T15:05:06;-0.60;99.90
54192;DHT22;40101;53.002;6.488;2024-01-10T15:07:32;-0.90;99.90
54192;DHT22;40101;53.002;6.488;2024-01-10T15:10:02;-0.80;99.90
54192;DHT22;40101;53.002;6.488;2024-01-10T15:12:39;-0.70;99.90
54192;DHT22;40101;53.002;6.488;2024-01-10T15:15:39;-1.00;99.90
54192;DHT22;40101;53.002;6.488;2024-01-10T15:18:47;-1.10;99.90
54192;DHT22;40101;53.002;6.488;2024-01-10T15:21:34;-1.10;99.90
54192;DHT22;40101;53.002;6.488;2024-01-10T15:24:00;-1.10;99.90
54192;DHT22;40101;53.002;6.488;2024-01-10T15:26:35;-1.20;99.90
54192;DHT22;40101;53.002;6.488;2024-01-10T15:29:16;-1.30;99.90
54192;DHT22;40101;53.002;6.488;2024-01-10T15:32:01;-1.30;99.90
54192;DHT22;40101;53.002;6.488;2024-01-10T15:34:36;-1.40;99.90
54192;DHT22;40101;53.002;6.488;2024-01-10T15:37:06;-1.10;99.90
54192;DHT22;40101;53.002;6.488;2024-01-10T15:39:40;-1.50;99.90
54192;DHT22;40101;53.002;6.488;2024-01-10T15:42:09;-1.20;99.90
54192;DHT22;40101;53.002;6.488;2024-01-10T15:44:57;-1.60;99.90
54192;DHT22;40101;53.002;6.488;2024-01-10T15:47:29;-1.60;99.90
54192;DHT22;40101;53.002;6.488;2024-01-10T15:50:01;-1.70;99.90
54192;DHT22;40101;53.002;6.488;2024-01-10T15:52:30;-1.70;99.90
54192;DHT22;40101;53.002;6.488;2024-01-10T15:54:57;-1.80;99.90
54192;DHT22;40101;53.002;6.488;2024-01-10T15:57:33;-1.80;99.90
54192;DHT22;40101;53.002;6.488;2024-01-10T15:59:58;-1.80;99.90
54192;DHT22;40101;53.002;6.488;2024-01-10T16:02:27;-1.90;99.90
54192;DHT22;40101;53.002;6.488;2024-01-10T16:05:11;-1.90;99.90
54192;DHT22;40101;53.002;6.488;2024-01-10T16:07:56;-1.90;99.90
54192;DHT22;40101;53.002;6.488;2024-01-10T16:10:34;-2.00;99.90
54192;DHT22;40101;53.002;6.488;2024-01-10T16:15:38;-2.00;99.90
54192;DHT22;40101;53.002;6.488;2024-01-10T16:18:09;-2.20;99.90
54192;DHT22;40101;53.002;6.488;2024-01-10T16:20:54;-2.10;99.90
54192;DHT22;40101;53.002;6.488;2024-01-10T16:23:32;-2.00;99.90
54192;DHT22;40101;53.002;6.488;2024-01-10T16:26:33;-1.80;99.90
54192;DHT22;40101;53.002;6.488;2024-01-10T16:28:59;-2.30;99.90
54192;DHT22;40101;53.002;6.488;2024-01-10T16:31:27;-2.20;99.90
54192;DHT22;40101;53.002;6.488;2024-01-10T16:37:42;-2.30;99.90
54192;DHT22;40101;53.002;6.488;2024-01-10T16:40:52;-2.30;99.90
54192;DHT22;40101;53.002;6.488;2024-01-10T16:43:17;-2.30;99.90
54192;DHT22;40101;53.002;6.488;2024-01-10T16:45:49;-2.30;99.90
54192;DHT22;40101;53.002;6.488;2024-01-10T16:48:44;-2.00;99.90
54192;DHT22;40101;53.002;6.488;2024-01-10T16:51:16;-2.30;99.90
54192;DHT22;40101;53.002;6.488;2024-01-10T16:54:05;-2.60;99.90
54192;DHT22;40101;53.002;6.488;2024-01-10T16:56:32;-2.40;99.90
54192;DHT22;40101;53.002;6.488;2024-01-10T16:58:57;-2.20;99.90
54192;DHT22;40101;53.002;6.488;2024-01-10T17:01:47;-2.40;99.90
54192;DHT22;40101;53.002;6.488;2024-01-10T17:04:38;-2.10;99.90
54192;DHT22;40101;53.002;6.488;2024-01-10T17:07:28;-2.50;99.90
54192;DHT22;40101;53.002;6.488;2024-01-10T17:09:55;-2.50;99.90
54192;DHT22;40101;53.002;6.488;2024-01-10T17:12:29;-2.60;99.90
54192;DHT22;40101;53.002;6.488;2024-01-10T17:15:23;-2.50;99.90
54192;DHT22;40101;53.002;6.488;2024-01-10T17:18:00;-2.50;99.90
54192;DHT22;40101;53.002;6.488;2024-01-10T17:20:27;-2.50;99.90
54192;DHT22;40101;53.002;6.488;2024-01-10T17:23:03;-2.60;99.90
54192;DHT22;40101;53.002;6.488;2024-01-10T17:25:32;-2.60;99.90
54192;DHT22;40101;53.002;6.488;2024-01-10T17:27:58;-2.60;99.90
54192;DHT22;40101;53.002;6.488;2024-01-10T17:30:23;-2.60;99.90
54192;DHT22;40101;53.002;6.488;2024-01-10T17:32:51;-2.60;99.90
54192;DHT22;40101;53.002;6.488;2024-01-10T17:35:16;-2.70;99.90
54192;DHT22;40101;53.002;6.488;2024-01-10T17:37:48;-2.60;99.90
54192;DHT22;40101;53.002;6.488;2024-01-10T17:40:20;-2.70;99.90
54192;DHT22;40101;53.002;6.488;2024-01-10T17:42:45;-2.70;99.90
54192;DHT22;40101;53.002;6.488;2024-01-10T17:45:18;-2.70;99.90
54192;DHT22;40101;53.002;6.488;2024-01-10T17:47:43;-2.70;99.90
54192;DHT22;40101;53.002;6.488;2024-01-10T17:50:10;-2.60;99.90
54192;DHT22;40101;53.002;6.488;2024-01-10T17:52:44;-2.70;99.90
54192;DHT22;40101;53.002;6.488;2024-01-10T17:55:32;-2.80;99.90
54192;DHT22;40101;53.002;6.488;2024-01-10T17:58:01;-2.80;99.90
54192;DHT22;40101;53.002;6.488;2024-01-10T18:00:32;-2.80;99.90
54192;DHT22;40101;53.002;6.488;2024-01-10T18:02:58;-2.90;99.90